Terminal Aerodrome Forecast
Issued by NWS Twin Cities, MN

Home | Current Version | Previous Version | Text Only | Print | Product List | Glossary Off
Versions: 1 2 3 4 5 6 7 8 9 10 11 12 13 14 15 16 17 18 19 20 21 22 23 24 25 26 27 28

042
FTUS43 KMPX 141126
TAFMSP
TAF
KMSP 141126Z 1412/1518 14007KT P6SM SCT035 OVC150
     FM141600 16008KT 6SM -SHSN BKN025 OVC035
     FM142100 16010KT 3/4SM -SN BR VV006
     FM150100 31010KT 3SM -SHSN OVC015
     FM150600 33013G21KT P6SM OVC025
     FM151200 32014G21KT P6SM OVC050=

USA.gov is the U.S. government's official web portal to all federal, state and local government web resources and services.